Time;durP1;ratioP1;P1;durP2;ratioP2;P2;SDS_P1;SDS_P2;PMS_P1;PMS_P2;Temp;Humidity;BMP_temperature;BMP_pressure;BME280_temperature;BME280_humidity;BME280_pressure;Samples;Min_cycle;Max_cycle;Signal;HPM_P1;HPM_P2
2020/12/18 00:01:29;;;;;;;23.73;13.80;;;;;;;-1.86;95.63;93829.45;1801407;77;21184;-73
2020/12/18 00:04:00;;;;;;;30.37;17.80;;;;;;;-1.81;95.83;93825.30;1791412;78;21215;-77
2020/12/18 00:06:34;;;;;;;32.20;16.07;;;;;;;-1.78;95.89;93834.81;1794514;79;21182;-75
2020/12/18 00:09:05;;;;;;;28.80;16.83;;;;;;;-1.77;95.84;93833.73;1803237;78;21260;-75
2020/12/18 00:11:33;;;;;;;33.10;18.43;;;;;;;-1.76;95.84;93831.30;1813236;78;21659;-75
2020/12/18 00:14:01;;;;;;;29.90;17.73;;;;;;;-1.74;96.00;93836.31;1782969;80;20988;-77
2020/12/18 00:16:32;;;;;;;29.43;17.10;;;;;;;-1.72;96.13;93840.81;1796992;79;21211;-77
2020/12/18 00:18:59;;;;;;;30.10;17.07;;;;;;;-1.71;96.19;93840.48;1802600;79;21155;-75
2020/12/18 00:21:27;;;;;;;32.80;19.10;;;;;;;-1.71;96.09;93842.37;1815211;77;21654;-75
2020/12/18 00:23:55;;;;;;;31.60;16.80;;;;;;;-1.72;96.03;93842.14;1813192;76;21169;-76
2020/12/18 00:26:23;;;;;;;34.13;19.07;;;;;;;-1.73;96.11;93848.03;1868008;76;21156;-74
2020/12/18 00:28:51;;;;;;;33.60;18.80;;;;;;;-1.73;96.11;93841.88;1816190;77;21148;-73
2020/12/18 00:31:19;;;;;;;35.40;18.23;;;;;;;-1.74;96.12;93842.98;1805021;79;21159;-75
2020/12/18 00:33:48;;;;;;;37.70;21.37;;;;;;;-1.74;96.28;93849.65;1762991;80;21825;-76
2020/12/18 00:36:16;;;;;;;36.37;18.30;;;;;;;-1.74;96.28;93839.77;1775373;79;21202;-76
2020/12/18 00:38:44;;;;;;;32.87;16.87;;;;;;;-1.75;95.98;93844.86;1800800;79;21210;-76
2020/12/18 00:41:12;;;;;;;24.13;14.77;;;;;;;-1.76;95.91;93850.52;1771038;79;21154;-76
2020/12/18 00:43:40;;;;;;;29.10;16.53;;;;;;;-1.77;95.89;93846.25;1833906;78;21159;-76
2020/12/18 00:46:08;;;;;;;26.13;15.53;;;;;;;-1.77;95.73;93846.25;1785875;79;22615;-78
2020/12/18 00:48:37;;;;;;;27.60;14.90;;;;;;;-1.77;95.75;93844.92;1812338;77;21196;-74
2020/12/18 00:51:06;;;;;;;27.00;14.20;;;;;;;-1.78;95.71;93842.81;1783862;79;21182;-77
2020/12/18 00:53:35;;;;;;;25.03;13.70;;;;;;;-1.81;95.61;93838.64;1799187;78;21508;-77
2020/12/18 00:56:10;;;;;;;26.10;15.10;;;;;;;-1.83;95.39;93841.63;1769991;81;21176;-76
2020/12/18 00:58:44;;;;;;;30.33;16.13;;;;;;;-1.87;95.12;93840.66;1779856;79;21327;-75
2020/12/18 01:01:13;;;;;;;27.35;15.88;;;;;;;-1.87;95.34;93843.33;1769203;80;21149;-76
2020/12/18 01:03:41;;;;;;;28.87;14.93;;;;;;;-1.85;95.59;93833.67;1743670;79;21204;-74
2020/12/18 01:06:10;;;;;;;25.40;14.50;;;;;;;-1.86;95.72;93834.23;1787134;79;21192;-74
2020/12/18 01:08:40;;;;;;;25.80;13.70;;;;;;;-1.85;95.43;93839.80;1806504;77;21197;-76
2020/12/18 01:11:08;;;;;;;28.53;13.33;;;;;;;-1.85;95.48;93838.45;1829682;78;21651;-74
2020/12/18 01:13:37;;;;;;;26.73;12.47;;;;;;;-1.87;95.20;93827.33;1783606;79;21657;-74
2020/12/18 01:16:12;;;;;;;21.63;10.13;;;;;;;-1.93;94.54;93832.55;1740245;80;21176;-77
2020/12/18 01:18:42;;;;;;;20.53;11.13;;;;;;;-1.99;94.48;93831.91;1768464;80;21206;-74
2020/12/18 01:21:12;;;;;;;20.07;11.03;;;;;;;-2.02;94.21;93835.73;1759007;79;21352;-76
2020/12/18 01:23:42;;;;;;;22.40;11.17;;;;;;;-2.11;93.61;93829.55;1799883;79;21624;-75
2020/12/18 01:26:12;;;;;;;17.27;7.97;;;;;;;-2.12;95.05;93823.98;1804522;79;21226;-74
2020/12/18 01:28:41;;;;;;;18.03;9.90;;;;;;;-2.16;93.56;93829.14;1816551;78;21191;-74
2020/12/18 01:31:09;;;;;;;18.03;9.47;;;;;;;-2.28;93.33;93823.03;1779782;78;21208;-74
2020/12/18 01:33:37;;;;;;;16.63;9.40;;;;;;;-2.33;93.27;93823.70;1768587;79;21159;-75
2020/12/18 01:36:08;;;;;;;19.30;11.77;;;;;;;-2.35;94.05;93824.56;1807468;79;22775;-74
2020/12/18 01:38:38;;;;;;;22.30;12.10;;;;;;;-2.33;94.20;93831.69;1815138;79;22003;-75
2020/12/18 01:41:06;;;;;;;18.43;11.27;;;;;;;-2.30;94.72;93829.20;1786003;78;21174;-74
2020/12/18 01:43:35;;;;;;;18.77;11.53;;;;;;;-2.25;95.34;93823.77;1827388;78;21025;-75
2020/12/18 01:46:11;;;;;;;19.17;11.83;;;;;;;-2.19;95.63;93827.08;1818049;78;21607;-76
2020/12/18 01:48:42;;;;;;;20.93;11.60;;;;;;;-2.14;95.55;93824.30;1775439;80;21201;-75
2020/12/18 01:51:11;;;;;;;19.57;11.03;;;;;;;-2.11;95.57;93822.34;1773123;79;21137;-74
2020/12/18 01:53:40;;;;;;;16.37;10.20;;;;;;;-2.06;95.65;93832.10;1796219;79;21132;-75
2020/12/18 01:56:10;;;;;;;17.43;10.20;;;;;;;-2.04;95.26;93834.68;1755120;80;21223;-76
2020/12/18 01:58:40;;;;;;;20.53;12.20;;;;;;;-2.05;95.32;93829.13;1783204;80;21859;-75
2020/12/18 02:01:10;;;;;;;19.50;10.53;;;;;;;-2.04;95.57;93836.56;1783847;79;21273;-76
2020/12/18 02:03:40;;;;;;;20.13;10.97;;;;;;;-2.04;95.23;93837.34;1817434;78;21112;-76
2020/12/18 02:06:17;;;;;;;18.97;10.90;;;;;;;-2.04;95.35;93837.90;1753261;80;21192;-77
2020/12/18 02:08:48;;;;;;;;;;;;;;;-2.04;95.29;93838.68;1782416;79;21171;-75
2020/12/18 02:11:24;;;;;;;18.03;10.37;;;;;;;-2.04;95.15;93841.34;1748065;80;20556;-75
2020/12/18 02:13:54;;;;;;;21.73;9.83;;;;;;;-2.05;95.43;93839.00;1807604;77;21383;-76
2020/12/18 02:16:24;;;;;;;13.93;7.47;;;;;;;-2.04;95.28;93836.56;1774283;80;21187;-77
2020/12/18 02:18:56;;;;;;;16.57;9.60;;;;;;;-2.13;93.56;93844.52;1799899;79;21585;-76
2020/12/18 02:21:25;;;;;;;14.93;9.37;;;;;;;-2.29;93.41;93842.78;1748371;80;21286;-74
2020/12/18 02:23:53;;;;;;;11.67;7.50;;;;;;;-2.36;94.03;93835.77;1692565;83;21187;-75
2020/12/18 02:26:21;;;;;;;8.47;5.67;;;;;;;-2.36;94.62;93839.76;1814057;78;22476;-75
2020/12/18 02:28:51;;;;;;;7.60;5.37;;;;;;;-2.35;94.40;93843.98;1771195;78;21232;-76
2020/12/18 02:31:21;;;;;;;7.83;5.03;;;;;;;-2.37;94.73;93842.19;1786232;77;21164;-75
2020/12/18 02:33:57;;;;;;;8.57;5.00;;;;;;;-2.36;94.54;93841.64;1761108;78;21143;-75
2020/12/18 02:36:27;;;;;;;7.97;5.07;;;;;;;-2.39;94.03;93844.91;1812967;77;21369;-77
2020/12/18 02:39:00;;;;;;;7.43;5.40;;;;;;;-2.43;94.18;93842.61;1851767;76;22624;-74
2020/12/18 02:41:29;;;;;;;8.33;5.40;;;;;;;-2.43;94.35;93846.60;1833193;77;21243;-75
2020/12/18 02:44:01;;;;;;;9.97;7.27;;;;;;;-2.46;94.48;93840.78;1763256;79;21160;-76
2020/12/18 02:46:30;;;;;;;6.63;5.10;;;;;;;-2.47;94.60;93840.55;1741201;81;21219;-75
2020/12/18 02:48:58;;;;;;;11.93;7.47;;;;;;;-2.42;94.69;93842.84;1778919;79;21232;-77
2020/12/18 02:51:43;;;;;;;13.90;8.55;;;;;;;-2.36;94.95;93842.42;1747508;80;22237;-76
2020/12/18 02:54:14;;;;;;;11.90;6.40;;;;;;;-2.29;95.00;93841.45;1697078;81;21200;-76
2020/12/18 02:56:44;;;;;;;12.17;7.90;;;;;;;-2.27;94.28;93849.13;1830357;77;21669;-76
2020/12/18 02:59:29;;;;;;;13.60;8.25;;;;;;;-2.27;93.82;93849.91;1794921;77;21184;-76
2020/12/18 03:01:57;;;;;;;11.60;7.47;;;;;;;-2.28;93.97;93850.23;1772897;79;21147;-76
2020/12/18 03:04:26;;;;;;;16.23;9.73;;;;;;;-2.32;93.38;93850.59;1820431;77;21450;-78
2020/12/18 03:06:56;;;;;;;15.73;10.40;;;;;;;-2.36;93.37;93865.61;1813466;78;21211;-77
2020/12/18 03:09:24;;;;;;;17.10;10.10;;;;;;;-2.42;93.50;93859.60;1836800;78;21151;-76
2020/12/18 03:11:52;;;;;;;14.50;9.37;;;;;;;-2.37;94.10;93858.17;1783542;80;21170;-76
2020/12/18 03:14:20;;;;;;;17.00;10.10;;;;;;;-2.32;94.27;93866.58;1780070;78;21133;-75
2020/12/18 03:16:50;;;;;;;13.10;9.17;;;;;;;-2.26;94.87;93864.83;1815921;78;21794;-76
2020/12/18 03:19:20;;;;;;;13.97;9.07;;;;;;;-2.15;95.08;93865.34;1802780;78;21234;-75
2020/12/18 03:21:50;;;;;;;17.83;9.70;;;;;;;-2.12;94.51;93865.28;1739709;82;21163;-74
2020/12/18 03:24:19;;;;;;;13.57;9.23;;;;;;;-2.10;94.26;93864.45;1776605;80;21954;-75
2020/12/18 03:26:51;;;;;;;13.10;8.80;;;;;;;-2.11;93.94;93869.52;1740656;82;21577;-74
2020/12/18 03:29:20;;;;;;;17.50;8.97;;;;;;;-2.13;93.75;93873.83;1756006;80;21213;-75
2020/12/18 03:31:49;;;;;;;13.63;8.63;;;;;;;-2.15;93.49;93872.55;1783800;80;21212;-77
2020/12/18 03:34:18;;;;;;;14.20;8.93;;;;;;;-2.13;93.41;93868.50;1767569;80;21604;-74
2020/12/18 03:36:48;;;;;;;15.37;9.30;;;;;;;-2.12;93.17;93870.62;1730542;80;21283;-77
2020/12/18 03:39:16;;;;;;;12.53;8.87;;;;;;;-2.13;93.06;93877.05;1754826;80;21137;-75
2020/12/18 03:41:49;;;;;;;16.10;10.77;;;;;;;-2.16;93.23;93875.77;1766119;79;21300;-77
2020/12/18 03:44:18;;;;;;;17.60;10.37;;;;;;;-2.12;93.56;93876.73;1772518;80;21224;-75
2020/12/18 03:46:46;;;;;;;16.87;10.93;;;;;;;-2.10;93.49;93882.55;1790135;79;21145;-75
2020/12/18 03:49:19;;;;;;;14.17;8.70;;;;;;;-2.09;93.27;93885.45;1802601;78;21061;-76
2020/12/18 03:51:49;;;;;;;14.50;9.00;;;;;;;-2.09;93.19;93887.34;1801557;78;21157;-73
2020/12/18 03:54:19;;;;;;;14.67;9.47;;;;;;;-2.13;92.69;93884.48;1739284;81;21210;-77
2020/12/18 03:56:51;;;;;;;12.90;7.93;;;;;;;-2.15;93.11;93881.88;1774670;79;21174;-77
2020/12/18 03:59:24;;;;;;;12.23;7.27;;;;;;;-2.11;93.38;93886.28;1797096;77;21089;-74
2020/12/18 04:02:03;;;;;;;16.00;9.97;;;;;;;-2.10;92.90;93889.77;1799460;79;21639;-77
2020/12/18 04:04:32;;;;;;;14.27;8.83;;;;;;;-2.11;93.32;93894.83;1800853;79;21157;-77
2020/12/18 04:07:01;;;;;;;12.17;7.63;;;;;;;-2.09;93.26;93894.78;1802433;78;21280;-77
2020/12/18 04:09:30;;;;;;;13.90;8.70;;;;;;;-2.06;93.07;93896.84;1809803;78;21157;-74
2020/12/18 04:12:00;;;;;;;15.40;9.53;;;;;;;-2.04;93.00;93895.19;1794376;78;21548;-75
2020/12/18 04:14:30;;;;;;;14.53;8.80;;;;;;;-2.06;92.70;93896.06;1784480;79;21137;-74
2020/12/18 04:17:03;;;;;;;11.97;8.30;;;;;;;-2.08;92.64;93898.23;1790821;79;21131;-74
2020/12/18 04:19:31;;;;;;;10.00;6.47;;;;;;;-2.11;92.18;93898.83;1777584;80;21521;-75
2020/12/18 04:21:59;;;;;;;10.93;7.37;;;;;;;-2.13;92.16;93898.36;1792514;79;21219;-75
2020/12/18 04:24:29;;;;;;;11.33;6.90;;;;;;;-2.22;91.87;93897.77;1772018;79;21123;-76
2020/12/18 04:26:58;;;;;;;9.90;6.80;;;;;;;-2.26;92.55;93898.64;1821241;78;21503;-76
2020/12/18 04:29:26;;;;;;;12.43;7.70;;;;;;;-2.29;92.15;93897.94;1756551;81;21175;-75
2020/12/18 04:31:54;;;;;;;8.13;5.90;;;;;;;-2.31;92.35;93900.11;1725400;81;21650;-77
2020/12/18 04:34:22;;;;;;;9.30;6.47;;;;;;;-2.31;92.08;93893.45;1755270;80;21239;-73
2020/12/18 04:36:53;;;;;;;8.27;6.17;;;;;;;-2.34;91.58;93896.16;1759335;79;21672;-76
2020/12/18 04:39:23;;;;;;;8.93;7.03;;;;;;;-2.38;91.58;93905.84;1747432;80;21194;-77
2020/12/18 04:41:51;;;;;;;8.90;6.80;;;;;;;-2.45;91.88;93900.94;1754957;80;21064;-77
2020/12/18 04:44:19;;;;;;;9.50;6.80;;;;;;;-2.43;91.99;93910.52;1764068;81;21440;-77
2020/12/18 04:46:49;;;;;;;11.17;6.97;;;;;;;-2.43;91.81;93911.85;1747907;81;21718;-76
2020/12/18 04:49:18;;;;;;;8.70;6.10;;;;;;;-2.51;91.63;93912.81;1808827;78;21741;-75
2020/12/18 04:51:47;;;;;;;10.70;6.97;;;;;;;-2.57;91.67;93911.34;1748645;80;21107;-76
2020/12/18 04:54:20;;;;;;;11.67;6.97;;;;;;;-2.63;91.48;93915.73;1745004;81;21218;-75
2020/12/18 04:56:51;;;;;;;10.60;8.10;;;;;;;-2.71;91.58;93913.24;1825856;77;21418;-77
2020/12/18 04:59:23;;;;;;;12.30;7.87;;;;;;;-2.75;92.08;93917.05;1846037;77;21139;-76
2020/12/18 05:01:54;;;;;;;11.70;7.00;;;;;;;-2.77;92.32;93915.23;1842059;77;21478;-77
2020/12/18 05:04:25;;;;;;;8.67;6.17;;;;;;;-2.79;92.60;93909.41;1856463;77;21543;-78
2020/12/18 05:06:55;;;;;;;9.00;6.40;;;;;;;-2.77;92.42;93903.27;1763994;81;21164;-77
2020/12/18 05:09:25;;;;;;;11.20;6.97;;;;;;;-2.76;92.66;93903.50;1837606;77;22065;-79
2020/12/18 05:11:53;;;;;;;9.17;6.23;;;;;;;-2.74;92.95;93911.20;1838728;77;21513;-77
2020/12/18 05:14:28;;;;;;;9.57;6.83;;;;;;;-2.75;92.92;93905.06;1795077;79;21491;-76
2020/12/18 05:17:07;;;;;;;16.03;10.40;;;;;;;-2.76;93.09;93904.05;1830814;76;21121;-77
2020/12/18 05:19:38;;;;;;;19.87;11.50;;;;;;;-2.79;92.62;93906.75;1843612;77;21174;-76
2020/12/18 05:22:24;;;;;;;16.47;10.70;;;;;;;-2.79;92.46;93902.77;1800546;79;21357;-77
2020/12/18 05:24:55;;;;;;;13.47;8.27;;;;;;;-2.74;92.78;93904.55;1773993;80;22069;-79
2020/12/18 05:27:23;;;;;;;15.53;10.23;;;;;;;-2.69;92.88;93907.88;1802191;79;21152;-79
2020/12/18 05:29:51;;;;;;;12.77;9.07;;;;;;;-2.67;92.43;93906.78;1790374;79;21156;-76
2020/12/18 05:32:34;;;;;;;13.90;8.70;;;;;;;-2.66;92.37;93909.70;1758059;80;21213;-78
2020/12/18 05:35:04;;;;;;;11.73;7.03;;;;;;;-2.65;92.24;93911.27;1792601;78;22217;-77
2020/12/18 05:37:39;;;;;;;9.17;7.13;;;;;;;-2.67;91.91;93905.45;1818710;78;21315;-77
2020/12/18 05:40:17;;;;;;;15.53;10.10;;;;;;;-2.69;92.41;93903.09;1771019;79;21056;-75
2020/12/18 05:42:47;;;;;;;13.23;8.57;;;;;;;-2.64;92.67;93908.84;1773588;80;21123;-76
2020/12/18 05:45:19;;;;;;;13.07;8.97;;;;;;;-2.59;92.87;93914.08;1738121;82;21520;-77
2020/12/18 05:47:59;;;;;;;9.60;7.40;;;;;;;-2.53;93.02;93909.64;1754586;79;21787;-76
2020/12/18 05:50:36;;;;;;;9.93;6.70;;;;;;;-2.45;93.06;93906.81;1762942;80;21173;-76
2020/12/18 05:53:06;;;;;;;14.25;9.23;;;;;;;-2.36;92.98;93913.56;1741908;80;21190;-74
2020/12/18 05:55:39;;;;;;;11.77;7.90;;;;;;;-2.28;92.70;93914.95;1770788;80;21454;-75
2020/12/18 05:58:13;;;;;;;28.80;17.43;;;;;;;-2.26;92.26;93911.45;1802454;79;21183;-76
2020/12/18 06:00:45;;;;;;;9.73;7.00;;;;;;;-2.23;92.00;93912.70;1756135;79;22180;-77
2020/12/18 06:03:21;;;;;;;8.40;5.70;;;;;;;-2.24;91.59;93913.25;1775472;80;21145;-80
2020/12/18 06:05:52;;;;;;;8.73;6.57;;;;;;;-2.30;91.47;93913.11;1803554;79;21156;-78
2020/12/18 06:08:22;;;;;;;8.10;5.90;;;;;;;-2.35;91.73;93913.24;1743088;80;21430;-77
2020/12/18 06:10:52;;;;;;;9.30;6.17;;;;;;;-2.36;91.92;93910.34;1752247;80;21204;-77
2020/12/18 06:13:22;;;;;;;10.20;5.93;;;;;;;-2.32;92.41;93909.98;1699932;82;22518;-78
2020/12/18 06:16:02;;;;;;;20.73;12.60;;;;;;;-2.27;92.20;93915.73;1701451;84;21716;-78
2020/12/18 06:18:38;;;;;;;14.17;10.70;;;;;;;-2.26;92.10;93918.11;1760010;80;21259;-77
2020/12/18 06:21:08;;;;;;;8.07;6.10;;;;;;;-2.27;91.50;93922.39;1683249;82;21197;-78
2020/12/18 06:23:36;;;;;;;8.57;6.43;;;;;;;-2.28;91.28;93926.15;1765094;79;21142;-77
2020/12/18 06:26:12;;;;;;;9.53;6.43;;;;;;;-2.32;91.47;93924.63;1771576;80;21447;-77
2020/12/18 06:29:02;;;;;;;6.53;5.13;;;;;;;-2.35;91.64;93927.89;1792127;79;21231;-79
2020/12/18 06:31:33;;;;;;;6.27;5.10;;;;;;;-2.34;91.49;93927.34;1805561;79;21190;-79
2020/12/18 06:34:27;;;;;;;6.83;5.40;;;;;;;-2.35;91.43;93924.45;1744821;82;21202;-76
2020/12/18 06:37:01;;;;;;;7.20;4.70;;;;;;;-2.30;91.70;93930.98;1746232;81;21526;-76
2020/12/18 06:39:48;;;;;;;8.47;6.83;;;;;;;-2.26;91.71;93930.09;1745401;81;22543;-77
2020/12/18 06:42:29;;;;;;;10.80;6.67;;;;;;;-2.23;91.59;93934.80;1754017;80;21437;-76
2020/12/18 06:45:15;;;;;;;9.17;6.37;;;;;;;-2.22;91.24;93940.39;1769152;79;21622;-77
2020/12/18 06:47:59;;;;;;;8.27;5.90;;;;;;;-2.25;91.43;93931.66;1739094;80;21187;-77
2020/12/18 06:50:33;;;;;;;6.97;4.80;;;;;;;-2.20;91.35;93930.75;1761342;80;21226;-75
2020/12/18 06:53:05;;;;;;;7.60;5.50;;;;;;;-2.21;91.23;93921.98;1811782;77;21905;-78
2020/12/18 06:55:37;;;;;;;7.17;4.70;;;;;;;-2.23;91.42;93924.69;1751942;80;21135;-76
2020/12/18 06:58:28;;;;;;;9.73;6.53;;;;;;;-2.22;91.44;93928.41;1756162;81;21230;-86
2020/12/18 07:00:57;;;;;;;8.33;5.60;;;;;;;-2.20;91.48;93928.88;1763211;81;22307;-78
2020/12/18 07:03:48;;;;;;;5.50;4.47;;;;;;;-2.17;91.32;93932.03;1735089;80;37401;-78
2020/12/18 07:06:24;;;;;;;8.07;5.33;;;;;;;-2.15;91.27;93931.95;1809277;79;21392;-77
2020/12/18 07:08:52;;;;;;;7.27;5.93;;;;;;;-2.11;91.31;93940.13;1788741;79;21180;-77
2020/12/18 07:11:20;;;;;;;11.17;8.53;;;;;;;-2.05;91.56;93942.37;1793602;78;21742;-76
2020/12/18 07:13:51;;;;;;;11.20;7.83;;;;;;;-1.99;91.47;93939.84;1789713;78;21148;-76
2020/12/18 07:16:21;;;;;;;9.77;6.00;;;;;;;-1.92;91.38;93935.95;1813617;78;21654;-77
2020/12/18 07:18:50;;;;;;;8.63;6.43;;;;;;;-1.86;91.43;93932.08;1758790;79;21545;-77
2020/12/18 07:21:19;;;;;;;6.37;5.17;;;;;;;-1.81;91.41;93939.39;1819911;76;21164;-75
2020/12/18 07:23:48;;;;;;;10.63;6.53;;;;;;;-1.74;91.49;93945.63;1823146;77;21418;-78
2020/12/18 07:26:18;;;;;;;8.40;6.23;;;;;;;-1.67;91.48;93946.55;1813328;77;21113;-77
2020/12/18 07:28:47;;;;;;;7.00;5.53;;;;;;;-1.59;91.23;93947.92;1772564;80;21205;-76
2020/12/18 07:31:20;;;;;;;6.23;4.43;;;;;;;-1.50;91.12;93949.31;1811347;77;21237;-77
2020/12/18 07:33:57;;;;;;;25.83;16.00;;;;;;;-1.44;90.88;93957.96;1769253;80;21173;-78
2020/12/18 07:36:29;;;;;;;21.53;12.00;;;;;;;-1.42;90.80;93953.91;1784294;79;21160;-77
2020/12/18 07:38:57;;;;;;;10.03;7.33;;;;;;;-1.39;90.74;93955.97;1774029;79;21152;-76
2020/12/18 07:41:26;;;;;;;19.30;11.73;;;;;;;-1.38;90.54;93950.86;1792142;79;21212;-78
2020/12/18 07:43:55;;;;;;;10.67;7.07;;;;;;;-1.34;90.58;93957.70;1799631;79;21196;-76
2020/12/18 07:46:24;;;;;;;9.50;6.20;;;;;;;-1.31;90.43;93951.21;1760439;80;21216;-76
2020/12/18 07:48:52;;;;;;;18.30;11.37;;;;;;;-1.28;90.28;93951.94;1820791;77;21133;-76
2020/12/18 07:51:20;;;;;;;46.03;26.37;;;;;;;-1.25;90.34;93954.52;1738855;82;21224;-74
2020/12/18 07:53:53;;;;;;;23.63;13.60;;;;;;;-1.22;90.16;93955.23;1752107;79;21171;-76
2020/12/18 07:56:22;;;;;;;16.57;9.97;;;;;;;-1.19;90.08;93951.96;1800275;79;21408;-79
2020/12/18 07:58:53;;;;;;;8.27;6.80;;;;;;;-1.15;89.98;93950.25;1783483;80;21196;-75
2020/12/18 08:01:27;;;;;;;10.40;7.97;;;;;;;-1.11;90.10;93953.09;1769874;79;21147;-77
2020/12/18 08:04:10;;;;;;;10.57;7.13;;;;;;;-1.09;90.12;93950.88;1803612;79;21169;-79
2020/12/18 08:06:39;;;;;;;10.00;7.70;;;;;;;-1.03;90.15;93957.67;1781171;79;21227;-76
2020/12/18 08:09:11;;;;;;;10.97;7.13;;;;;;;-0.95;89.85;93963.58;1773657;79;21374;-78
2020/12/18 08:11:45;;;;;;;12.60;9.23;;;;;;;-0.92;89.84;93969.64;1781612;80;21167;-77
2020/12/18 08:14:13;;;;;;;24.92;16.37;;;;;;;-0.81;90.15;93975.48;1819864;78;21184;-78
2020/12/18 08:16:42;;;;;;;26.60;15.40;;;;;;;-0.74;90.19;93979.84;1806720;79;21504;-75
2020/12/18 08:19:11;;;;;;;9.67;6.43;;;;;;;-0.65;90.28;93982.52;1757433;79;21208;-76
2020/12/18 08:21:46;;;;;;;9.80;6.10;;;;;;;-0.56;89.82;93986.02;1766644;80;21677;-78
2020/12/18 08:24:31;;;;;;;8.30;5.85;;;;;;;-0.52;88.91;93977.06;1748421;79;25211;-78
2020/12/18 08:27:12;;;;;;;15.75;9.73;;;;;;;-0.55;88.17;93979.02;1740386;81;21464;-75
2020/12/18 08:29:42;;;;;;;19.42;14.20;;;;;;;-0.55;88.21;93983.02;1752349;79;21463;-76
2020/12/18 08:32:13;;;;;;;9.30;7.25;;;;;;;-0.48;88.41;93976.45;1764653;79;21160;-85
2020/12/18 08:34:41;;;;;;;14.23;11.73;;;;;;;-0.42;87.77;93979.97;1787215;80;21199;-76
2020/12/18 08:37:10;;;;;;;13.00;10.98;;;;;;;-0.38;87.52;93978.24;1794416;78;21191;-75
2020/12/18 08:39:38;;;;;;;9.05;6.58;;;;;;;-0.35;87.54;93982.97;1818180;75;21163;-77
2020/12/18 08:42:06;;;;;;;7.22;5.40;;;;;;;-0.29;87.51;93995.65;1798283;79;21195;-74
2020/12/18 08:44:42;;;;;;;8.95;6.40;;;;;;;-0.24;87.00;93987.47;1745663;82;21323;-79
2020/12/18 08:47:19;;;;;;;8.23;6.03;;;;;;;-0.25;86.71;93985.34;1733842;82;21946;-77
2020/12/18 08:49:47;;;;;;;10.43;6.28;;;;;;;-0.20;86.84;93988.41;1811118;77;21190;-76
2020/12/18 08:52:16;;;;;;;9.20;6.95;;;;;;;-0.14;87.09;93990.40;1803572;77;21159;-76
2020/12/18 08:54:45;;;;;;;7.58;6.22;;;;;;;-0.07;87.19;93993.39;1807358;78;21764;-77
2020/12/18 08:57:18;;;;;;;6.62;5.55;;;;;;;0.01;86.92;93989.15;1817816;78;21466;-74
2020/12/18 09:00:10;;;;;;;5.58;4.40;;;;;;;0.03;86.54;93990.94;1794113;78;21267;-77
2020/12/18 09:02:46;;;;;;;5.83;4.35;;;;;;;0.01;86.11;93987.81;1748350;81;21201;-74
2020/12/18 09:05:25;;;;;;;5.55;4.37;;;;;;;0.03;86.27;93994.95;1780399;79;21188;-76
2020/12/18 09:08:08;;;;;;;5.45;4.67;;;;;;;0.10;86.37;93994.72;1791295;80;21213;-76
2020/12/18 09:10:43;;;;;;;6.17;4.47;;;;;;;0.43;87.19;93980.30;1836196;77;21175;-73
2020/12/18 09:13:27;;;;;;;5.58;4.95;;;;;;;0.86;86.62;93973.27;1843637;77;21814;-83
2020/12/18 09:16:08;;;;;;;5.62;4.37;;;;;;;1.20;86.52;93975.02;1798274;79;21425;-82
2020/12/18 09:18:44;;;;;;;5.28;4.30;;;;;;;1.49;84.46;93980.95;1775776;80;21110;-75
2020/12/18 09:21:15;;;;;;;5.70;4.40;;;;;;;1.67;83.18;93970.92;1787169;79;21174;-75
2020/12/18 09:23:46;;;;;;;4.65;3.83;;;;;;;1.81;82.75;93970.69;1777714;79;21528;-76
2020/12/18 09:26:26;;;;;;;5.75;4.35;;;;;;;1.90;81.13;93978.10;1810454;78;21620;-76
2020/12/18 09:28:54;;;;;;;4.40;3.80;;;;;;;1.93;80.67;93977.45;1774338;79;21184;-76
2020/12/18 09:31:25;;;;;;;6.08;4.50;;;;;;;1.93;79.86;93972.09;1779858;78;21130;-74
2020/12/18 09:33:53;;;;;;;4.33;3.90;;;;;;;1.92;80.30;93969.19;1753261;80;21143;-74
2020/12/18 09:36:24;;;;;;;6.40;5.40;;;;;;;2.04;80.05;93969.80;1797110;79;21108;-76
2020/12/18 09:38:52;;;;;;;16.75;10.85;;;;;;;2.10;79.62;93971.16;1744160;80;22208;-76
2020/12/18 09:41:21;;;;;;;7.10;4.87;;;;;;;2.11;79.46;93963.36;1845190;77;21158;-76
2020/12/18 09:43:50;;;;;;;15.53;10.58;;;;;;;2.09;78.43;93960.99;1745162;80;22126;-76
2020/12/18 09:46:21;;;;;;;24.20;15.58;;;;;;;2.00;78.66;93964.87;1848528;76;21075;-77
2020/12/18 09:48:48;;;;;;;21.42;16.65;;;;;;;2.00;79.54;93965.66;1816002;78;21221;-74
2020/12/18 09:51:16;;;;;;;15.60;9.40;;;;;;;2.02;79.48;93962.06;1798155;78;22148;-76
2020/12/18 09:53:45;;;;;;;9.13;6.35;;;;;;;2.08;79.71;93965.36;1773290;78;21534;-76
2020/12/18 09:56:14;;;;;;;6.90;5.08;;;;;;;2.18;79.52;93964.41;1821791;78;21160;-77
2020/12/18 09:58:43;;;;;;;4.40;4.00;;;;;;;2.27;78.46;93964.32;1783115;79;21057;-76
2020/12/18 10:01:16;;;;;;;7.10;5.47;;;;;;;2.28;77.86;93959.73;1783444;79;21165;-77
2020/12/18 10:03:46;;;;;;;;;;;;;;;2.30;78.07;93958.86;1758889;80;21193;-76
2020/12/18 10:06:15;;;;;;;9.08;6.50;;;;;;;2.33;77.38;93959.52;1729889;80;20288;-77
2020/12/18 10:08:43;;;;;;;8.85;5.72;;;;;;;2.41;78.08;93964.05;1735169;82;21224;-74
2020/12/18 10:11:11;;;;;;;8.43;5.67;;;;;;;2.58;77.07;93965.21;1798523;79;21189;-77
2020/12/18 10:13:39;;;;;;;6.20;5.08;;;;;;;2.75;76.23;93962.92;1823548;77;21395;-76
2020/12/18 10:16:08;;;;;;;20.37;11.33;;;;;;;2.85;75.29;93950.95;1826264;78;21258;-76
2020/12/18 10:18:36;;;;;;;14.90;10.18;;;;;;;2.84;75.62;93960.14;1836301;77;21412;-75
2020/12/18 10:21:04;;;;;;;16.17;9.98;;;;;;;2.77;75.16;93951.84;1811974;78;21168;-75
2020/12/18 10:23:32;;;;;;;12.60;6.75;;;;;;;2.72;75.53;93952.06;1720230;82;21263;-75
2020/12/18 10:26:01;;;;;;;9.80;6.22;;;;;;;2.70;75.40;93951.59;1756761;80;21179;-76
2020/12/18 10:28:29;;;;;;;30.10;17.37;;;;;;;2.65;75.37;93953.94;1775365;80;21671;-76
2020/12/18 10:30:58;;;;;;;17.30;9.20;;;;;;;2.58;75.59;93958.50;1779166;80;21207;-79
2020/12/18 10:33:26;;;;;;;14.63;10.45;;;;;;;2.58;75.99;93957.72;1767846;78;21662;-75
2020/12/18 10:35:54;;;;;;;13.50;8.38;;;;;;;2.58;76.35;93945.64;1748942;80;21204;-76
2020/12/18 10:38:24;;;;;;;8.95;6.80;;;;;;;2.65;76.17;93942.64;1829356;77;21193;-78
2020/12/18 10:40:52;;;;;;;7.72;5.97;;;;;;;2.66;75.49;93937.48;1786211;78;21703;-75
2020/12/18 10:43:20;;;;;;;8.68;6.60;;;;;;;2.62;75.57;93939.27;1772118;79;21669;-78
2020/12/18 10:45:48;;;;;;;9.25;6.47;;;;;;;2.54;75.56;93941.48;1799911;79;21157;-73
2020/12/18 10:48:17;;;;;;;9.28;6.47;;;;;;;2.47;76.15;93937.21;1823059;77;21206;-75
2020/12/18 10:50:45;;;;;;;37.08;20.92;;;;;;;2.39;76.31;93936.18;1782857;80;21694;-76
2020/12/18 10:53:13;;;;;;;19.92;10.65;;;;;;;2.40;77.72;93927.56;1759837;80;22352;-75
2020/12/18 10:55:42;;;;;;;9.08;6.22;;;;;;;2.49;77.93;93930.97;1789595;78;21484;-75
2020/12/18 10:58:10;;;;;;;13.15;8.75;;;;;;;2.58;76.94;93931.65;1814276;78;22128;-76
2020/12/18 11:00:40;;;;;;;8.80;6.30;;;;;;;2.63;76.90;93934.14;1848937;77;21511;-76
2020/12/18 11:03:08;;;;;;;8.45;6.70;;;;;;;2.66;76.25;93939.39;1850182;77;21538;-75
2020/12/18 11:05:36;;;;;;;9.88;7.08;;;;;;;2.67;76.00;93930.20;1798961;79;21187;-75
2020/12/18 11:08:04;;;;;;;17.02;9.03;;;;;;;2.63;76.15;93935.48;1769889;80;21147;-74
2020/12/18 11:10:32;;;;;;;12.70;8.25;;;;;;;2.61;76.98;93931.55;1794007;77;21457;-76
2020/12/18 11:13:01;;;;;;;13.05;8.60;;;;;;;2.61;77.27;93937.70;1748371;81;21200;-78
2020/12/18 11:15:29;;;;;;;20.23;12.70;;;;;;;2.67;77.23;93935.58;1769643;79;21129;-76
2020/12/18 11:17:59;;;;;;;13.70;8.90;;;;;;;2.74;77.01;93939.06;1820437;78;22390;-81
2020/12/18 11:20:29;;;;;;;10.98;7.42;;;;;;;2.77;76.09;93945.12;1827654;78;21618;-83
2020/12/18 11:22:57;;;;;;;13.58;9.10;;;;;;;2.69;76.19;93942.75;1750890;80;21120;-78
2020/12/18 11:25:27;;;;;;;12.13;8.38;;;;;;;2.70;76.65;93946.22;1800636;77;21167;-83
2020/12/18 11:27:55;;;;;;;7.97;5.78;;;;;;;2.75;76.83;93940.66;1768549;80;21240;-79
2020/12/18 11:30:24;;;;;;;8.18;5.90;;;;;;;2.80;76.61;93931.03;1740059;82;22434;-79
2020/12/18 11:32:52;;;;;;;9.68;6.05;;;;;;;2.85;75.89;93928.91;1729951;82;21650;-83
2020/12/18 11:35:20;;;;;;;7.67;5.78;;;;;;;2.88;75.46;93938.20;1801023;77;21152;-83
2020/12/18 11:37:48;;;;;;;7.25;5.80;;;;;;;2.89;75.43;93932.48;1796712;77;21180;-78
2020/12/18 11:40:16;;;;;;;7.10;5.95;;;;;;;2.88;75.28;93932.27;1720279;81;21206;-81
2020/12/18 11:42:44;;;;;;;8.75;6.62;;;;;;;2.86;75.69;93925.13;1759614;80;21430;-79
2020/12/18 11:45:12;;;;;;;9.73;6.60;;;;;;;2.86;75.70;93926.47;1734991;81;21674;-77
2020/12/18 11:47:41;;;;;;;12.23;7.75;;;;;;;2.87;75.88;93937.98;1718531;83;21180;-78